sensor_id;sensor_type;location;lat;lon;timestamp;P1;durP1;ratioP1;P2;durP2;ratioP2
42614;SDS011;28754;47.700;7.924;2023-02-08T00:02:22;14.87;;;7.10;;
42614;SDS011;28754;47.700;7.924;2023-02-08T00:05:09;14.50;;;7.27;;
42614;SDS011;28754;47.700;7.924;2023-02-08T00:07:55;10.87;;;6.63;;
42614;SDS011;28754;47.700;7.924;2023-02-08T00:10:42;11.73;;;5.93;;
42614;SDS011;28754;47.700;7.924;2023-02-08T00:13:29;11.43;;;7.03;;
42614;SDS011;28754;47.700;7.924;2023-02-08T00:16:16;7.47;;;5.37;;
42614;SDS011;28754;47.700;7.924;2023-02-08T00:19:03;9.10;;;6.00;;
42614;SDS011;28754;47.700;7.924;2023-02-08T00:21:50;8.70;;;6.10;;
42614;SDS011;28754;47.700;7.924;2023-02-08T00:24:36;9.13;;;5.47;;
42614;SDS011;28754;47.700;7.924;2023-02-08T00:27:24;7.60;;;4.50;;
42614;SDS011;28754;47.700;7.924;2023-02-08T00:30:10;7.10;;;4.90;;
42614;SDS011;28754;47.700;7.924;2023-02-08T00:32:57;7.97;;;4.80;;
42614;SDS011;28754;47.700;7.924;2023-02-08T00:35:46;7.67;;;4.47;;
42614;SDS011;28754;47.700;7.924;2023-02-08T00:38:33;6.20;;;4.17;;
42614;SDS011;28754;47.700;7.924;2023-02-08T00:41:20;7.40;;;4.30;;
42614;SDS011;28754;47.700;7.924;2023-02-08T00:44:07;6.27;;;3.90;;
42614;SDS011;28754;47.700;7.924;2023-02-08T00:46:54;6.43;;;3.37;;
42614;SDS011;28754;47.700;7.924;2023-02-08T00:49:41;8.87;;;4.00;;
42614;SDS011;28754;47.700;7.924;2023-02-08T00:52:28;6.43;;;3.27;;
42614;SDS011;28754;47.700;7.924;2023-02-08T00:55:14;5.23;;;2.90;;
42614;SDS011;28754;47.700;7.924;2023-02-08T00:58:01;7.50;;;3.10;;
42614;SDS011;28754;47.700;7.924;2023-02-08T01:00:50;5.77;;;3.57;;
42614;SDS011;28754;47.700;7.924;2023-02-08T01:03:38;5.33;;;3.03;;
42614;SDS011;28754;47.700;7.924;2023-02-08T01:06:27;4.93;;;3.10;;
42614;SDS011;28754;47.700;7.924;2023-02-08T01:09:14;6.30;;;2.80;;
42614;SDS011;28754;47.700;7.924;2023-02-08T01:12:00;7.23;;;3.00;;
42614;SDS011;28754;47.700;7.924;2023-02-08T01:14:47;4.47;;;2.43;;
42614;SDS011;28754;47.700;7.924;2023-02-08T01:17:34;4.63;;;2.63;;
42614;SDS011;28754;47.700;7.924;2023-02-08T01:20:21;4.07;;;2.50;;
42614;SDS011;28754;47.700;7.924;2023-02-08T01:23:09;5.97;;;2.57;;
42614;SDS011;28754;47.700;7.924;2023-02-08T01:25:55;6.33;;;2.97;;
42614;SDS011;28754;47.700;7.924;2023-02-08T01:28:42;5.50;;;2.43;;
42614;SDS011;28754;47.700;7.924;2023-02-08T01:31:31;4.53;;;2.63;;
42614;SDS011;28754;47.700;7.924;2023-02-08T01:34:23;3.37;;;1.97;;
42614;SDS011;28754;47.700;7.924;2023-02-08T01:37:09;3.97;;;2.40;;
42614;SDS011;28754;47.700;7.924;2023-02-08T01:39:56;3.90;;;2.40;;
42614;SDS011;28754;47.700;7.924;2023-02-08T01:42:43;5.07;;;2.87;;
42614;SDS011;28754;47.700;7.924;2023-02-08T01:45:30;5.70;;;2.37;;
42614;SDS011;28754;47.700;7.924;2023-02-08T01:51:23;5.37;;;2.50;;
42614;SDS011;28754;47.700;7.924;2023-02-08T01:54:15;5.60;;;2.97;;
42614;SDS011;28754;47.700;7.924;2023-02-08T01:57:07;5.43;;;2.37;;
42614;SDS011;28754;47.700;7.924;2023-02-08T01:59:56;4.43;;;2.70;;
42614;SDS011;28754;47.700;7.924;2023-02-08T02:03:01;4.13;;;2.27;;
42614;SDS011;28754;47.700;7.924;2023-02-08T02:05:54;3.30;;;1.90;;
42614;SDS011;28754;47.700;7.924;2023-02-08T02:08:53;2.90;;;2.20;;
42614;SDS011;28754;47.700;7.924;2023-02-08T02:11:58;2.93;;;2.03;;
42614;SDS011;28754;47.700;7.924;2023-02-08T02:14:45;2.93;;;1.73;;
42614;SDS011;28754;47.700;7.924;2023-02-08T02:17:33;2.57;;;1.60;;
42614;SDS011;28754;47.700;7.924;2023-02-08T02:33:28;5.70;;;1.90;;
42614;SDS011;28754;47.700;7.924;2023-02-08T02:46:41;4.57;;;2.08;;
42614;SDS011;28754;47.700;7.924;2023-02-08T02:49:48;2.73;;;1.47;;
42614;SDS011;28754;47.700;7.924;2023-02-08T02:52:45;2.43;;;1.67;;
42614;SDS011;28754;47.700;7.924;2023-02-08T02:58:50;3.57;;;1.63;;
42614;SDS011;28754;47.700;7.924;2023-02-08T03:01:42;2.90;;;2.13;;
42614;SDS011;28754;47.700;7.924;2023-02-08T03:10:06;3.47;;;1.53;;
42614;SDS011;28754;47.700;7.924;2023-02-08T03:20:13;3.17;;;1.67;;
42614;SDS011;28754;47.700;7.924;2023-02-08T03:29:37;4.15;;;2.05;;
42614;SDS011;28754;47.700;7.924;2023-02-08T03:32:36;2.80;;;1.43;;
42614;SDS011;28754;47.700;7.924;2023-02-08T03:35:37;4.57;;;2.30;;
42614;SDS011;28754;47.700;7.924;2023-02-08T03:38:38;2.83;;;1.70;;
42614;SDS011;28754;47.700;7.924;2023-02-08T03:41:31;2.73;;;1.70;;
42614;SDS011;28754;47.700;7.924;2023-02-08T03:47:21;4.57;;;2.53;;
42614;SDS011;28754;47.700;7.924;2023-02-08T03:50:12;5.07;;;2.47;;
42614;SDS011;28754;47.700;7.924;2023-02-08T03:53:02;2.13;;;1.40;;
42614;SDS011;28754;47.700;7.924;2023-02-08T03:55:54;4.57;;;1.90;;
42614;SDS011;28754;47.700;7.924;2023-02-08T03:58:48;3.97;;;2.10;;
42614;SDS011;28754;47.700;7.924;2023-02-08T04:01:44;4.53;;;2.53;;
42614;SDS011;28754;47.700;7.924;2023-02-08T04:04:39;1.98;;;1.38;;
42614;SDS011;28754;47.700;7.924;2023-02-08T04:07:32;2.93;;;1.80;;
42614;SDS011;28754;47.700;7.924;2023-02-08T04:10:19;3.47;;;2.23;;
42614;SDS011;28754;47.700;7.924;2023-02-08T04:13:06;4.93;;;2.10;;
42614;SDS011;28754;47.700;7.924;2023-02-08T04:15:52;5.07;;;2.20;;
42614;SDS011;28754;47.700;7.924;2023-02-08T04:18:39;3.43;;;1.93;;
42614;SDS011;28754;47.700;7.924;2023-02-08T04:21:29;4.07;;;2.33;;
42614;SDS011;28754;47.700;7.924;2023-02-08T04:24:15;3.97;;;2.13;;
42614;SDS011;28754;47.700;7.924;2023-02-08T04:27:02;5.37;;;2.13;;
42614;SDS011;28754;47.700;7.924;2023-02-08T04:29:49;3.73;;;1.80;;
42614;SDS011;28754;47.700;7.924;2023-02-08T04:32:35;3.47;;;2.00;;
42614;SDS011;28754;47.700;7.924;2023-02-08T04:35:22;4.50;;;2.40;;
42614;SDS011;28754;47.700;7.924;2023-02-08T04:38:09;4.40;;;2.87;;
42614;SDS011;28754;47.700;7.924;2023-02-08T04:40:55;6.07;;;2.30;;
42614;SDS011;28754;47.700;7.924;2023-02-08T04:43:42;3.97;;;2.03;;
42614;SDS011;28754;47.700;7.924;2023-02-08T04:46:29;5.37;;;2.73;;
42614;SDS011;28754;47.700;7.924;2023-02-08T04:49:15;3.93;;;2.30;;
42614;SDS011;28754;47.700;7.924;2023-02-08T04:52:02;4.20;;;2.37;;
42614;SDS011;28754;47.700;7.924;2023-02-08T04:54:49;11.13;;;2.80;;
42614;SDS011;28754;47.700;7.924;2023-02-08T04:57:36;4.67;;;3.17;;
42614;SDS011;28754;47.700;7.924;2023-02-08T05:00:22;3.23;;;2.17;;
42614;SDS011;28754;47.700;7.924;2023-02-08T05:03:09;4.07;;;2.27;;
42614;SDS011;28754;47.700;7.924;2023-02-08T05:05:57;3.70;;;1.57;;
42614;SDS011;28754;47.700;7.924;2023-02-08T05:08:45;3.03;;;1.57;;
42614;SDS011;28754;47.700;7.924;2023-02-08T05:11:32;5.57;;;1.77;;
42614;SDS011;28754;47.700;7.924;2023-02-08T05:14:18;5.03;;;2.47;;
42614;SDS011;28754;47.700;7.924;2023-02-08T05:17:05;11.10;;;4.07;;
42614;SDS011;28754;47.700;7.924;2023-02-08T05:19:52;4.27;;;1.73;;
42614;SDS011;28754;47.700;7.924;2023-02-08T05:22:38;6.40;;;2.63;;
42614;SDS011;28754;47.700;7.924;2023-02-08T05:25:25;6.80;;;2.37;;
42614;SDS011;28754;47.700;7.924;2023-02-08T05:28:12;4.27;;;1.97;;
42614;SDS011;28754;47.700;7.924;2023-02-08T05:30:58;2.40;;;1.50;;
42614;SDS011;28754;47.700;7.924;2023-02-08T05:33:52;6.57;;;1.50;;
42614;SDS011;28754;47.700;7.924;2023-02-08T05:36:39;4.57;;;1.80;;
42614;SDS011;28754;47.700;7.924;2023-02-08T05:39:26;1.97;;;1.33;;
42614;SDS011;28754;47.700;7.924;2023-02-08T05:42:12;2.13;;;1.30;;
42614;SDS011;28754;47.700;7.924;2023-02-08T05:44:59;7.10;;;3.00;;
42614;SDS011;28754;47.700;7.924;2023-02-08T05:47:46;3.70;;;2.00;;
42614;SDS011;28754;47.700;7.924;2023-02-08T05:50:32;3.73;;;2.37;;
42614;SDS011;28754;47.700;7.924;2023-02-08T05:53:19;3.80;;;1.73;;
42614;SDS011;28754;47.700;7.924;2023-02-08T05:56:06;3.80;;;1.63;;
42614;SDS011;28754;47.700;7.924;2023-02-08T05:58:53;3.13;;;1.90;;
42614;SDS011;28754;47.700;7.924;2023-02-08T06:01:39;4.13;;;1.70;;
42614;SDS011;28754;47.700;7.924;2023-02-08T06:04:26;3.43;;;1.77;;
42614;SDS011;28754;47.700;7.924;2023-02-08T06:07:13;4.27;;;1.87;;
42614;SDS011;28754;47.700;7.924;2023-02-08T06:10:00;4.50;;;1.53;;
42614;SDS011;28754;47.700;7.924;2023-02-08T06:12:47;2.57;;;1.60;;
42614;SDS011;28754;47.700;7.924;2023-02-08T06:15:33;4.87;;;1.67;;
42614;SDS011;28754;47.700;7.924;2023-02-08T06:18:20;3.43;;;1.87;;
42614;SDS011;28754;47.700;7.924;2023-02-08T06:21:07;6.70;;;2.37;;
42614;SDS011;28754;47.700;7.924;2023-02-08T06:23:54;3.47;;;1.93;;
42614;SDS011;28754;47.700;7.924;2023-02-08T06:26:42;3.07;;;1.83;;
42614;SDS011;28754;47.700;7.924;2023-02-08T06:29:29;3.67;;;2.30;;
42614;SDS011;28754;47.700;7.924;2023-02-08T06:32:16;3.37;;;2.10;;
42614;SDS011;28754;47.700;7.924;2023-02-08T06:35:02;4.10;;;2.23;;
42614;SDS011;28754;47.700;7.924;2023-02-08T06:37:49;2.80;;;1.50;;
42614;SDS011;28754;47.700;7.924;2023-02-08T06:40:39;8.40;;;1.77;;
42614;SDS011;28754;47.700;7.924;2023-02-08T06:43:26;7.30;;;1.83;;
42614;SDS011;28754;47.700;7.924;2023-02-08T06:46:12;2.37;;;1.77;;
42614;SDS011;28754;47.700;7.924;2023-02-08T06:48:59;10.10;;;2.53;;
42614;SDS011;28754;47.700;7.924;2023-02-08T06:51:46;5.17;;;2.23;;
42614;SDS011;28754;47.700;7.924;2023-02-08T06:54:32;5.67;;;2.47;;
42614;SDS011;28754;47.700;7.924;2023-02-08T06:57:19;3.87;;;2.00;;
42614;SDS011;28754;47.700;7.924;2023-02-08T07:00:06;13.47;;;2.80;;
42614;SDS011;28754;47.700;7.924;2023-02-08T07:02:53;2.87;;;1.80;;
42614;SDS011;28754;47.700;7.924;2023-02-08T07:05:40;3.40;;;2.07;;
42614;SDS011;28754;47.700;7.924;2023-02-08T07:08:27;3.10;;;1.43;;
42614;SDS011;28754;47.700;7.924;2023-02-08T07:11:14;3.10;;;2.43;;
42614;SDS011;28754;47.700;7.924;2023-02-08T07:14:04;5.60;;;2.17;;
42614;SDS011;28754;47.700;7.924;2023-02-08T07:16:51;3.00;;;1.77;;
42614;SDS011;28754;47.700;7.924;2023-02-08T07:19:38;3.87;;;2.10;;
42614;SDS011;28754;47.700;7.924;2023-02-08T07:22:25;3.33;;;1.97;;
42614;SDS011;28754;47.700;7.924;2023-02-08T07:25:12;3.03;;;1.95;;
42614;SDS011;28754;47.700;7.924;2023-02-08T07:27:58;5.82;;;2.05;;
42614;SDS011;28754;47.700;7.924;2023-02-08T07:30:45;7.70;;;2.30;;
42614;SDS011;28754;47.700;7.924;2023-02-08T07:33:32;7.90;;;3.60;;
42614;SDS011;28754;47.700;7.924;2023-02-08T07:36:19;7.78;;;2.65;;
42614;SDS011;28754;47.700;7.924;2023-02-08T07:39:05;3.88;;;2.47;;
42614;SDS011;28754;47.700;7.924;2023-02-08T07:41:52;5.55;;;2.17;;
42614;SDS011;28754;47.700;7.924;2023-02-08T07:44:39;4.40;;;2.33;;
42614;SDS011;28754;47.700;7.924;2023-02-08T07:47:26;4.68;;;2.17;;
42614;SDS011;28754;47.700;7.924;2023-02-08T07:50:13;4.95;;;2.75;;
42614;SDS011;28754;47.700;7.924;2023-02-08T07:53:01;3.60;;;2.28;;
42614;SDS011;28754;47.700;7.924;2023-02-08T07:55:48;6.28;;;2.55;;
42614;SDS011;28754;47.700;7.924;2023-02-08T07:58:35;5.72;;;3.22;;
42614;SDS011;28754;47.700;7.924;2023-02-08T08:01:22;8.40;;;2.95;;
42614;SDS011;28754;47.700;7.924;2023-02-08T08:04:09;4.25;;;2.35;;
42614;SDS011;28754;47.700;7.924;2023-02-08T08:06:55;5.03;;;2.60;;
42614;SDS011;28754;47.700;7.924;2023-02-08T08:09:42;3.33;;;2.35;;
42614;SDS011;28754;47.700;7.924;2023-02-08T08:12:29;3.13;;;2.25;;
42614;SDS011;28754;47.700;7.924;2023-02-08T08:15:15;3.67;;;2.50;;
42614;SDS011;28754;47.700;7.924;2023-02-08T08:18:02;3.97;;;2.53;;
42614;SDS011;28754;47.700;7.924;2023-02-08T08:20:49;3.05;;;2.13;;
42614;SDS011;28754;47.700;7.924;2023-02-08T08:23:36;3.95;;;2.58;;
42614;SDS011;28754;47.700;7.924;2023-02-08T08:26:24;6.07;;;2.80;;
42614;SDS011;28754;47.700;7.924;2023-02-08T08:29:10;3.17;;;2.20;;
42614;SDS011;28754;47.700;7.924;2023-02-08T08:31:58;4.45;;;2.33;;
42614;SDS011;28754;47.700;7.924;2023-02-08T08:34:44;5.13;;;2.78;;
42614;SDS011;28754;47.700;7.924;2023-02-08T08:37:31;4.10;;;2.35;;
42614;SDS011;28754;47.700;7.924;2023-02-08T08:40:19;4.13;;;2.55;;
42614;SDS011;28754;47.700;7.924;2023-02-08T08:43:05;4.47;;;2.55;;
42614;SDS011;28754;47.700;7.924;2023-02-08T08:45:52;4.53;;;2.60;;
42614;SDS011;28754;47.700;7.924;2023-02-08T08:48:39;9.25;;;2.63;;
42614;SDS011;28754;47.700;7.924;2023-02-08T08:51:25;2.28;;;1.65;;
42614;SDS011;28754;47.700;7.924;2023-02-08T08:54:12;4.13;;;2.22;;
42614;SDS011;28754;47.700;7.924;2023-02-08T08:56:59;3.83;;;1.75;;
42614;SDS011;28754;47.700;7.924;2023-02-08T08:59:46;2.17;;;1.98;;
42614;SDS011;28754;47.700;7.924;2023-02-08T09:02:34;9.50;;;2.90;;
42614;SDS011;28754;47.700;7.924;2023-02-08T09:05:21;3.40;;;2.00;;
42614;SDS011;28754;47.700;7.924;2023-02-08T09:08:07;3.85;;;2.28;;
42614;SDS011;28754;47.700;7.924;2023-02-08T09:10:54;2.10;;;1.80;;
42614;SDS011;28754;47.700;7.924;2023-02-08T09:13:41;2.80;;;1.80;;
42614;SDS011;28754;47.700;7.924;2023-02-08T09:16:28;3.03;;;1.67;;
42614;SDS011;28754;47.700;7.924;2023-02-08T09:19:15;2.55;;;1.77;;
42614;SDS011;28754;47.700;7.924;2023-02-08T09:22:02;2.90;;;2.10;;
42614;SDS011;28754;47.700;7.924;2023-02-08T09:24:51;3.10;;;2.20;;
42614;SDS011;28754;47.700;7.924;2023-02-08T09:27:38;3.25;;;2.20;;
42614;SDS011;28754;47.700;7.924;2023-02-08T09:30:25;3.00;;;2.00;;
42614;SDS011;28754;47.700;7.924;2023-02-08T09:33:12;2.97;;;1.83;;
42614;SDS011;28754;47.700;7.924;2023-02-08T09:35:58;2.83;;;1.85;;
42614;SDS011;28754;47.700;7.924;2023-02-08T09:38:45;4.20;;;2.40;;
42614;SDS011;28754;47.700;7.924;2023-02-08T09:47:52;5.65;;;3.50;;
42614;SDS011;28754;47.700;7.924;2023-02-08T09:50:53;5.40;;;2.65;;
42614;SDS011;28754;47.700;7.924;2023-02-08T09:53:59;3.03;;;1.67;;
42614;SDS011;28754;47.700;7.924;2023-02-08T09:57:02;3.67;;;2.10;;
42614;SDS011;28754;47.700;7.924;2023-02-08T10:00:02;2.97;;;1.85;;
42614;SDS011;28754;47.700;7.924;2023-02-08T10:02:58;2.92;;;2.00;;
42614;SDS011;28754;47.700;7.924;2023-02-08T10:05:47;4.47;;;2.58;;
42614;SDS011;28754;47.700;7.924;2023-02-08T10:08:34;3.58;;;2.03;;
42614;SDS011;28754;47.700;7.924;2023-02-08T10:14:54;2.83;;;2.03;;
42614;SDS011;28754;47.700;7.924;2023-02-08T10:31:10;3.08;;;2.20;;
42614;SDS011;28754;47.700;7.924;2023-02-08T10:37:20;4.32;;;2.85;;
42614;SDS011;28754;47.700;7.924;2023-02-08T10:40:29;4.00;;;2.47;;
42614;SDS011;28754;47.700;7.924;2023-02-08T10:43:26;3.38;;;2.05;;
42614;SDS011;28754;47.700;7.924;2023-02-08T10:46:31;9.00;;;3.45;;
42614;SDS011;28754;47.700;7.924;2023-02-08T10:49:34;2.78;;;1.85;;
42614;SDS011;28754;47.700;7.924;2023-02-08T10:52:47;7.35;;;2.42;;
42614;SDS011;28754;47.700;7.924;2023-02-08T10:55:34;3.55;;;2.35;;
42614;SDS011;28754;47.700;7.924;2023-02-08T10:58:26;4.35;;;3.00;;
42614;SDS011;28754;47.700;7.924;2023-02-08T11:01:13;3.30;;;2.38;;
42614;SDS011;28754;47.700;7.924;2023-02-08T11:04:01;4.53;;;3.00;;
42614;SDS011;28754;47.700;7.924;2023-02-08T11:06:52;5.07;;;3.00;;
42614;SDS011;28754;47.700;7.924;2023-02-08T11:09:39;7.53;;;4.43;;
42614;SDS011;28754;47.700;7.924;2023-02-08T11:12:26;6.60;;;3.17;;
42614;SDS011;28754;47.700;7.924;2023-02-08T11:15:23;7.47;;;3.72;;
42614;SDS011;28754;47.700;7.924;2023-02-08T11:18:35;7.35;;;3.80;;
42614;SDS011;28754;47.700;7.924;2023-02-08T11:21:41;3.22;;;2.38;;
42614;SDS011;28754;47.700;7.924;2023-02-08T11:27:30;4.32;;;2.65;;
42614;SDS011;28754;47.700;7.924;2023-02-08T11:30:23;5.50;;;3.10;;
42614;SDS011;28754;47.700;7.924;2023-02-08T11:36:06;4.05;;;2.95;;
42614;SDS011;28754;47.700;7.924;2023-02-08T11:39:02;4.10;;;3.28;;
42614;SDS011;28754;47.700;7.924;2023-02-08T11:44:51;4.95;;;2.88;;
42614;SDS011;28754;47.700;7.924;2023-02-08T11:47:40;4.05;;;2.72;;
42614;SDS011;28754;47.700;7.924;2023-02-08T11:50:34;3.65;;;2.67;;
42614;SDS011;28754;47.700;7.924;2023-02-08T11:53:46;6.60;;;3.42;;
42614;SDS011;28754;47.700;7.924;2023-02-08T11:56:33;7.15;;;3.10;;
42614;SDS011;28754;47.700;7.924;2023-02-08T11:59:21;4.60;;;3.42;;
42614;SDS011;28754;47.700;7.924;2023-02-08T12:05:34;5.70;;;3.15;;
42614;SDS011;28754;47.700;7.924;2023-02-08T12:09:06;5.13;;;3.45;;
42614;SDS011;28754;47.700;7.924;2023-02-08T12:15:27;17.33;;;5.20;;
42614;SDS011;28754;47.700;7.924;2023-02-08T12:18:25;4.40;;;3.03;;
42614;SDS011;28754;47.700;7.924;2023-02-08T12:21:42;4.03;;;3.03;;
42614;SDS011;28754;47.700;7.924;2023-02-08T12:24:35;5.53;;;3.63;;
42614;SDS011;28754;47.700;7.924;2023-02-08T12:31:21;6.72;;;3.47;;
42614;SDS011;28754;47.700;7.924;2023-02-08T12:42:14;11.70;;;8.30;;
42614;SDS011;28754;47.700;7.924;2023-02-08T12:49:41;14.38;;;9.85;;
42614;SDS011;28754;47.700;7.924;2023-02-08T12:53:02;27.52;;;9.95;;
42614;SDS011;28754;47.700;7.924;2023-02-08T12:56:16;11.60;;;9.00;;
42614;SDS011;28754;47.700;7.924;2023-02-08T12:59:21;12.48;;;9.93;;
42614;SDS011;28754;47.700;7.924;2023-02-08T13:02:21;11.60;;;8.75;;
42614;SDS011;28754;47.700;7.924;2023-02-08T13:05:37;17.27;;;9.63;;
42614;SDS011;28754;47.700;7.924;2023-02-08T13:08:35;19.83;;;9.68;;
42614;SDS011;28754;47.700;7.924;2023-02-08T13:11:43;16.95;;;10.43;;
42614;SDS011;28754;47.700;7.924;2023-02-08T13:14:53;14.20;;;10.07;;
42614;SDS011;28754;47.700;7.924;2023-02-08T13:18:26;12.50;;;9.85;;
42614;SDS011;28754;47.700;7.924;2023-02-08T13:21:25;17.87;;;10.20;;
42614;SDS011;28754;47.700;7.924;2023-02-08T13:24:36;12.88;;;9.80;;
42614;SDS011;28754;47.700;7.924;2023-02-08T13:27:27;11.77;;;8.35;;
42614;SDS011;28754;47.700;7.924;2023-02-08T13:30:17;13.35;;;10.35;;
42614;SDS011;28754;47.700;7.924;2023-02-08T13:33:16;12.57;;;9.20;;
42614;SDS011;28754;47.700;7.924;2023-02-08T13:36:18;14.10;;;9.93;;
42614;SDS011;28754;47.700;7.924;2023-02-08T13:39:32;14.05;;;10.18;;
42614;SDS011;28754;47.700;7.924;2023-02-08T13:45:45;17.17;;;13.52;;
42614;SDS011;28754;47.700;7.924;2023-02-08T13:48:56;21.73;;;10.45;;
42614;SDS011;28754;47.700;7.924;2023-02-08T13:51:52;14.95;;;9.52;;
42614;SDS011;28754;47.700;7.924;2023-02-08T13:54:40;11.77;;;9.45;;
42614;SDS011;28754;47.700;7.924;2023-02-08T14:03:40;13.48;;;9.55;;
42614;SDS011;28754;47.700;7.924;2023-02-08T14:06:27;12.35;;;9.27;;
42614;SDS011;28754;47.700;7.924;2023-02-08T14:09:25;12.48;;;9.80;;
42614;SDS011;28754;47.700;7.924;2023-02-08T14:12:30;20.25;;;14.43;;
42614;SDS011;28754;47.700;7.924;2023-02-08T14:15:25;11.30;;;9.80;;
42614;SDS011;28754;47.700;7.924;2023-02-08T14:18:25;15.77;;;10.90;;
42614;SDS011;28754;47.700;7.924;2023-02-08T14:21:15;14.07;;;11.43;;
42614;SDS011;28754;47.700;7.924;2023-02-08T14:24:29;16.98;;;11.18;;
42614;SDS011;28754;47.700;7.924;2023-02-08T14:27:26;17.05;;;10.07;;
42614;SDS011;28754;47.700;7.924;2023-02-08T14:30:27;14.82;;;10.35;;
42614;SDS011;28754;47.700;7.924;2023-02-08T14:33:20;17.52;;;11.35;;
42614;SDS011;28754;47.700;7.924;2023-02-08T14:42:39;17.52;;;10.40;;
42614;SDS011;28754;47.700;7.924;2023-02-08T14:45:51;13.05;;;9.68;;
42614;SDS011;28754;47.700;7.924;2023-02-08T14:48:48;15.00;;;9.82;;
42614;SDS011;28754;47.700;7.924;2023-02-08T14:51:39;12.77;;;9.30;;
42614;SDS011;28754;47.700;7.924;2023-02-08T14:54:34;14.27;;;9.75;;
42614;SDS011;28754;47.700;7.924;2023-02-08T14:58:03;15.45;;;9.85;;
42614;SDS011;28754;47.700;7.924;2023-02-08T15:00:53;18.08;;;11.48;;
42614;SDS011;28754;47.700;7.924;2023-02-08T15:03:49;17.38;;;11.75;;
42614;SDS011;28754;47.700;7.924;2023-02-08T15:09:41;16.55;;;10.98;;
42614;SDS011;28754;47.700;7.924;2023-02-08T15:12:39;16.48;;;10.68;;
42614;SDS011;28754;47.700;7.924;2023-02-08T15:15:36;15.18;;;10.98;;
42614;SDS011;28754;47.700;7.924;2023-02-08T15:18:28;16.40;;;11.43;;
42614;SDS011;28754;47.700;7.924;2023-02-08T15:21:21;17.90;;;12.32;;
42614;SDS011;28754;47.700;7.924;2023-02-08T15:24:19;15.07;;;10.27;;
42614;SDS011;28754;47.700;7.924;2023-02-08T15:27:21;16.15;;;11.13;;
42614;SDS011;28754;47.700;7.924;2023-02-08T15:33:13;12.68;;;9.57;;
42614;SDS011;28754;47.700;7.924;2023-02-08T15:36:05;16.48;;;11.70;;
42614;SDS011;28754;47.700;7.924;2023-02-08T15:39:03;16.75;;;12.10;;
42614;SDS011;28754;47.700;7.924;2023-02-08T15:42:21;16.23;;;11.95;;
42614;SDS011;28754;47.700;7.924;2023-02-08T15:45:24;17.25;;;10.82;;
42614;SDS011;28754;47.700;7.924;2023-02-08T15:48:15;17.52;;;11.70;;
42614;SDS011;28754;47.700;7.924;2023-02-08T15:51:02;19.48;;;12.27;;
42614;SDS011;28754;47.700;7.924;2023-02-08T15:53:50;18.70;;;12.27;;
42614;SDS011;28754;47.700;7.924;2023-02-08T15:56:40;21.08;;;12.85;;
42614;SDS011;28754;47.700;7.924;2023-02-08T15:59:37;20.23;;;11.80;;
42614;SDS011;28754;47.700;7.924;2023-02-08T16:02:29;24.05;;;12.95;;
42614;SDS011;28754;47.700;7.924;2023-02-08T16:05:20;17.85;;;10.82;;
42614;SDS011;28754;47.700;7.924;2023-02-08T16:08:13;22.15;;;15.80;;
42614;SDS011;28754;47.700;7.924;2023-02-08T16:11:10;29.90;;;19.80;;
42614;SDS011;28754;47.700;7.924;2023-02-08T16:14:06;24.55;;;18.20;;
42614;SDS011;28754;47.700;7.924;2023-02-08T16:16:59;24.75;;;14.98;;
42614;SDS011;28754;47.700;7.924;2023-02-08T16:19:49;28.30;;;18.15;;
42614;SDS011;28754;47.700;7.924;2023-02-08T16:22:37;72.40;;;36.72;;
42614;SDS011;28754;47.700;7.924;2023-02-08T16:25:34;20.77;;;12.95;;
42614;SDS011;28754;47.700;7.924;2023-02-08T16:28:37;56.88;;;28.52;;
42614;SDS011;28754;47.700;7.924;2023-02-08T16:31:27;62.00;;;34.13;;
42614;SDS011;28754;47.700;7.924;2023-02-08T16:34:17;44.58;;;25.20;;
42614;SDS011;28754;47.700;7.924;2023-02-08T16:37:05;28.23;;;15.45;;
42614;SDS011;28754;47.700;7.924;2023-02-08T16:43:37;25.83;;;15.18;;
42614;SDS011;28754;47.700;7.924;2023-02-08T16:46:47;23.92;;;15.65;;
42614;SDS011;28754;47.700;7.924;2023-02-08T16:49:36;22.42;;;14.00;;
42614;SDS011;28754;47.700;7.924;2023-02-08T16:52:23;23.30;;;13.60;;
42614;SDS011;28754;47.700;7.924;2023-02-08T16:55:14;24.00;;;13.90;;
42614;SDS011;28754;47.700;7.924;2023-02-08T16:58:11;35.15;;;21.40;;
42614;SDS011;28754;47.700;7.924;2023-02-08T17:01:00;24.73;;;13.95;;
42614;SDS011;28754;47.700;7.924;2023-02-08T17:03:47;29.73;;;15.45;;
42614;SDS011;28754;47.700;7.924;2023-02-08T17:06:35;22.30;;;13.65;;
42614;SDS011;28754;47.700;7.924;2023-02-08T17:09:25;19.10;;;13.52;;
42614;SDS011;28754;47.700;7.924;2023-02-08T17:12:11;19.02;;;12.45;;
42614;SDS011;28754;47.700;7.924;2023-02-08T17:14:58;24.02;;;15.68;;
42614;SDS011;28754;47.700;7.924;2023-02-08T17:17:48;23.20;;;14.27;;
42614;SDS011;28754;47.700;7.924;2023-02-08T17:20:36;22.90;;;15.75;;
42614;SDS011;28754;47.700;7.924;2023-02-08T17:23:26;23.42;;;15.43;;
42614;SDS011;28754;47.700;7.924;2023-02-08T17:26:19;30.90;;;16.80;;
42614;SDS011;28754;47.700;7.924;2023-02-08T17:29:31;27.92;;;19.20;;
42614;SDS011;28754;47.700;7.924;2023-02-08T17:32:54;26.13;;;16.75;;
42614;SDS011;28754;47.700;7.924;2023-02-08T17:39:53;28.20;;;18.60;;
42614;SDS011;28754;47.700;7.924;2023-02-08T17:42:39;33.03;;;19.23;;
42614;SDS011;28754;47.700;7.924;2023-02-08T17:45:27;39.28;;;22.27;;
42614;SDS011;28754;47.700;7.924;2023-02-08T17:48:14;38.80;;;21.33;;
42614;SDS011;28754;47.700;7.924;2023-02-08T17:51:01;27.73;;;16.48;;
42614;SDS011;28754;47.700;7.924;2023-02-08T17:54:01;26.90;;;16.77;;
42614;SDS011;28754;47.700;7.924;2023-02-08T17:56:51;27.95;;;17.98;;
42614;SDS011;28754;47.700;7.924;2023-02-08T17:59:41;31.17;;;16.63;;
42614;SDS011;28754;47.700;7.924;2023-02-08T18:02:28;29.52;;;16.67;;
42614;SDS011;28754;47.700;7.924;2023-02-08T18:05:15;37.80;;;22.23;;
42614;SDS011;28754;47.700;7.924;2023-02-08T18:08:12;24.13;;;14.13;;
42614;SDS011;28754;47.700;7.924;2023-02-08T18:11:05;18.88;;;13.40;;
42614;SDS011;28754;47.700;7.924;2023-02-08T18:14:00;23.23;;;12.43;;
42614;SDS011;28754;47.700;7.924;2023-02-08T18:16:47;25.88;;;13.52;;
42614;SDS011;28754;47.700;7.924;2023-02-08T18:19:34;19.92;;;12.90;;
42614;SDS011;28754;47.700;7.924;2023-02-08T18:22:20;20.25;;;12.68;;
42614;SDS011;28754;47.700;7.924;2023-02-08T18:25:07;21.38;;;13.55;;
42614;SDS011;28754;47.700;7.924;2023-02-08T18:27:56;30.33;;;15.70;;
42614;SDS011;28754;47.700;7.924;2023-02-08T18:30:42;31.77;;;14.85;;
42614;SDS011;28754;47.700;7.924;2023-02-08T18:33:29;24.38;;;13.63;;
42614;SDS011;28754;47.700;7.924;2023-02-08T18:36:17;22.55;;;13.27;;
42614;SDS011;28754;47.700;7.924;2023-02-08T18:39:05;26.70;;;15.20;;
42614;SDS011;28754;47.700;7.924;2023-02-08T18:41:52;19.85;;;13.50;;
42614;SDS011;28754;47.700;7.924;2023-02-08T18:44:39;22.52;;;14.43;;
42614;SDS011;28754;47.700;7.924;2023-02-08T18:47:26;25.15;;;15.35;;
42614;SDS011;28754;47.700;7.924;2023-02-08T18:50:13;20.58;;;12.68;;
42614;SDS011;28754;47.700;7.924;2023-02-08T18:52:59;28.23;;;15.70;;
42614;SDS011;28754;47.700;7.924;2023-02-08T18:55:58;24.60;;;15.07;;
42614;SDS011;28754;47.700;7.924;2023-02-08T18:58:47;29.75;;;15.50;;
42614;SDS011;28754;47.700;7.924;2023-02-08T19:01:34;28.05;;;14.50;;
42614;SDS011;28754;47.700;7.924;2023-02-08T19:04:21;29.45;;;14.68;;
42614;SDS011;28754;47.700;7.924;2023-02-08T19:07:08;32.58;;;17.23;;
42614;SDS011;28754;47.700;7.924;2023-02-08T19:09:55;48.72;;;22.90;;
42614;SDS011;28754;47.700;7.924;2023-02-08T19:12:41;37.83;;;17.35;;
42614;SDS011;28754;47.700;7.924;2023-02-08T19:15:28;21.20;;;13.32;;
42614;SDS011;28754;47.700;7.924;2023-02-08T19:18:15;23.35;;;13.10;;
42614;SDS011;28754;47.700;7.924;2023-02-08T19:21:03;20.83;;;13.48;;
42614;SDS011;28754;47.700;7.924;2023-02-08T19:23:59;23.73;;;12.80;;